createdAt,value
2022-10-04T00:06:06.382Z,22.02
2022-10-04T00:13:15.249Z,22.06
2022-10-04T00:20:09.060Z,22.03
2022-10-04T00:27:17.943Z,22.04
2022-10-04T00:34:40.515Z,22.07
2022-10-04T00:41:45.174Z,22.04
2022-10-04T00:48:46.296Z,21.99
2022-10-04T00:56:04.482Z,21.96
2022-10-04T01:03:09.807Z,21.94
2022-10-04T01:10:08.067Z,21.96
2022-10-04T01:17:19.041Z,21.93
2022-10-04T01:24:26.387Z,21.91
2022-10-04T01:31:12.057Z,21.91
2022-10-04T01:37:43.555Z,21.94
2022-10-04T01:44:42.318Z,21.93
2022-10-04T01:51:45.578Z,21.96
2022-10-04T01:58:57.205Z,21.99
2022-10-04T02:05:57.218Z,21.97
2022-10-04T02:12:53.507Z,21.96
2022-10-04T02:19:47.254Z,22.03
2022-10-04T02:26:31.272Z,21.92
2022-10-04T02:33:21.152Z,21.96
2022-10-04T02:40:10.305Z,21.92
2022-10-04T02:47:30.246Z,21.91
2022-10-04T02:54:40.290Z,21.9
2022-10-04T03:01:43.487Z,21.9
2022-10-04T03:08:30.522Z,21.88
2022-10-04T03:15:15.071Z,21.88
2022-10-04T03:21:57.911Z,21.88
2022-10-04T03:28:48.519Z,21.93
2022-10-04T03:35:48.299Z,21.97
2022-10-04T03:42:31.512Z,21.92
2022-10-04T03:49:22.245Z,21.91
2022-10-04T03:56:16.239Z,21.94
2022-10-04T04:03:03.126Z,21.89
2022-10-04T04:10:16.726Z,21.94
2022-10-04T04:17:04.324Z,21.93
2022-10-04T04:24:02.439Z,21.88
2022-10-04T04:30:55.005Z,21.83
2022-10-04T04:37:58.373Z,21.79
2022-10-04T04:44:45.895Z,21.77
2022-10-04T04:51:35.532Z,21.78
2022-10-04T04:58:35.422Z,21.79
2022-10-04T05:05:15.498Z,21.76
2022-10-04T05:12:20.257Z,21.72
2022-10-04T05:19:25.823Z,21.72
2022-10-04T05:26:26.786Z,21.74
2022-10-04T05:33:19.326Z,21.9
2022-10-04T05:40:32.592Z,21.94
2022-10-04T05:47:36.385Z,21.91
2022-10-04T05:54:38.251Z,21.88
2022-10-04T06:01:49.457Z,21.95
2022-10-04T06:08:59.192Z,21.83
2022-10-04T06:16:17.903Z,22.44
2022-10-04T06:23:32.137Z,22.84
2022-10-04T06:30:40.940Z,23.05
2022-10-04T06:37:32.344Z,23.15
2022-10-04T06:44:41.427Z,23.24
2022-10-04T06:52:00.408Z,23.28
2022-10-04T06:59:02.359Z,23.12
2022-10-04T07:06:09.267Z,23.05
2022-10-04T07:13:03.629Z,23.01
2022-10-04T07:20:10.718Z,22.87
2022-10-04T07:27:18.287Z,22.81
2022-10-04T07:34:14.371Z,22.75
2022-10-04T07:41:25.774Z,22.68
2022-10-04T07:48:29.918Z,22.56
2022-10-04T07:55:27.601Z,22.64
2022-10-04T08:02:37.025Z,22.54
2022-10-04T08:09:49.863Z,22.54
2022-10-04T08:16:52.778Z,22.47
2022-10-04T08:24:00.636Z,22.45
2022-10-04T08:31:20.756Z,22.53
2022-10-04T08:38:39.772Z,22.51
2022-10-04T08:45:40.750Z,22.48
2022-10-04T08:53:08.774Z,22.51
2022-10-04T09:00:15.286Z,22.34
2022-10-04T09:07:28.774Z,22.37
2022-10-04T09:14:39.479Z,22.3
2022-10-04T09:21:58.488Z,22.25
2022-10-04T09:29:05.176Z,22.22
2022-10-04T09:36:09.900Z,22.3
2022-10-04T09:43:12.635Z,22.25
2022-10-04T09:50:22.511Z,22.26
2022-10-04T09:57:41.934Z,22.26
2022-10-04T10:04:57.396Z,22.32
2022-10-04T10:12:04.824Z,22.33
2022-10-04T10:19:19.704Z,22.31
2022-10-04T10:26:31.896Z,22.22
2022-10-04T10:33:34.417Z,22.28
2022-10-04T10:40:48.465Z,22.17
2022-10-04T10:48:03.505Z,22.14
2022-10-04T10:55:11.727Z,22.11
2022-10-04T11:02:06.121Z,22.12
2022-10-04T11:09:16.470Z,22.07
2022-10-04T11:16:28.630Z,22.15
2022-10-04T11:23:26.851Z,22.16
2022-10-04T11:30:40.542Z,22.21
2022-10-04T11:37:32.847Z,22.26
2022-10-04T11:44:36.786Z,22.28
2022-10-04T11:51:50.872Z,22.39
2022-10-04T11:58:46.937Z,22.4
2022-10-04T12:05:54.439Z,22.31
2022-10-04T12:12:58.623Z,22.21
2022-10-04T12:20:16.588Z,22.17
2022-10-04T12:27:26.390Z,22.23
2022-10-04T12:34:24.819Z,22.34
2022-10-04T12:41:11.500Z,22.34
2022-10-04T12:48:15.705Z,22.42
2022-10-04T12:55:46.733Z,22.34
2022-10-04T13:03:02.468Z,22.28
2022-10-04T13:10:28.006Z,22.46
2022-10-04T13:18:27.616Z,22.48
2022-10-04T13:26:31.285Z,22.51
2022-10-04T13:35:03.403Z,22.54
2022-10-04T13:43:24.684Z,22.54
2022-10-04T13:51:40.386Z,22.72
2022-10-04T13:59:52.973Z,22.77
2022-10-04T14:08:08.949Z,22.75
2022-10-04T14:16:30.715Z,22.72
2022-10-04T14:24:38.339Z,22.77
2022-10-04T14:32:54.201Z,22.88
2022-10-04T14:41:14.416Z,22.9
2022-10-04T14:49:33.885Z,23.02
2022-10-04T14:58:03.450Z,23.05
2022-10-04T15:06:07.933Z,23.13
2022-10-04T15:14:50.237Z,23.17
2022-10-04T15:23:19.415Z,23.14
2022-10-04T15:31:30.551Z,23.09
2022-10-04T15:40:01.992Z,23
2022-10-04T15:48:15.873Z,22.89
2022-10-04T15:56:26.104Z,22.82
2022-10-04T16:04:36.786Z,22.76
2022-10-04T16:12:47.509Z,22.71
2022-10-04T16:21:10.359Z,22.82
2022-10-04T16:29:03.778Z,22.65
2022-10-04T16:37:22.440Z,22.61
2022-10-04T16:45:27.950Z,22.68
2022-10-04T16:53:28.010Z,22.7
2022-10-04T17:01:40.009Z,22.65
2022-10-04T17:09:55.667Z,22.64
2022-10-04T17:18:27.393Z,22.56
2022-10-04T17:26:42.457Z,22.51
2022-10-04T17:34:59.590Z,22.4
2022-10-04T17:43:26.463Z,22.32
2022-10-04T17:52:02.485Z,22.25
2022-10-04T18:00:20.989Z,22.18
2022-10-04T18:08:37.007Z,22.22
2022-10-04T18:16:59.601Z,22.2
2022-10-04T18:25:01.996Z,22.16
2022-10-04T18:33:09.637Z,22.16
2022-10-04T18:41:11.755Z,22.12
2022-10-04T18:49:25.197Z,22.12
2022-10-04T18:57:36.512Z,22.09
2022-10-04T19:05:58.123Z,22.05
2022-10-04T19:14:07.566Z,22.06
2022-10-04T19:22:34.769Z,22.11
2022-10-04T19:30:36.742Z,22.23
2022-10-04T19:38:44.133Z,22.08
2022-10-04T19:46:43.918Z,22.09
2022-10-04T19:54:52.932Z,22.07
2022-10-04T20:03:12.089Z,22.34
2022-10-04T20:11:17.046Z,22.37
2022-10-04T20:19:43.642Z,22.28
2022-10-04T20:27:28.978Z,22.12
2022-10-04T20:35:09.601Z,22.04
2022-10-04T20:43:08.209Z,22.02
2022-10-04T20:50:54.405Z,22
2022-10-04T20:58:50.140Z,21.97
2022-10-04T21:06:55.190Z,21.93
2022-10-04T21:14:46.585Z,21.95
2022-10-04T21:22:57.870Z,21.89
2022-10-04T21:30:47.626Z,21.91
2022-10-04T21:38:30.108Z,21.88
2022-10-04T21:46:09.659Z,21.97
2022-10-04T21:53:43.777Z,21.99
2022-10-04T22:01:16.177Z,21.89
2022-10-04T22:08:43.584Z,21.92
2022-10-04T22:16:13.080Z,21.87
2022-10-04T22:23:46.701Z,21.9
2022-10-04T22:31:34.183Z,21.87
2022-10-04T22:39:43.917Z,21.94
2022-10-04T22:47:18.642Z,21.91
2022-10-04T22:54:59.275Z,21.87
2022-10-04T23:02:49.863Z,21.85
2022-10-04T23:10:33.230Z,21.96
2022-10-04T23:18:14.946Z,21.93
2022-10-04T23:26:14.816Z,21.98
2022-10-04T23:34:19.671Z,22.02
2022-10-04T23:42:10.679Z,22.07
2022-10-04T23:50:13.222Z,22.2
2022-10-04T23:58:00.025Z,22.2
